sensor_id;sensor_type;location;lat;lon;timestamp;temperature;humidity
66722;SHT31;53633;49.932;10.884;2023-11-21T00:00:22;9.17;89.06
66722;SHT31;53633;49.932;10.884;2023-11-21T00:02:49;9.19;88.95
66722;SHT31;53633;49.932;10.884;2023-11-21T00:05:17;9.16;88.70
66722;SHT31;53633;49.932;10.884;2023-11-21T00:07:44;9.15;88.74
66722;SHT31;53633;49.932;10.884;2023-11-21T00:10:12;9.12;88.62
66722;SHT31;53633;49.932;10.884;2023-11-21T00:12:38;9.13;88.67
66722;SHT31;53633;49.932;10.884;2023-11-21T00:15:06;9.16;88.80
66722;SHT31;53633;49.932;10.884;2023-11-21T00:17:34;9.15;88.74
66722;SHT31;53633;49.932;10.884;2023-11-21T00:20:01;9.15;88.77
66722;SHT31;53633;49.932;10.884;2023-11-21T00:22:29;9.16;88.82
66722;SHT31;53633;49.932;10.884;2023-11-21T00:24:56;9.16;88.61
66722;SHT31;53633;49.932;10.884;2023-11-21T00:27:22;9.17;88.60
66722;SHT31;53633;49.932;10.884;2023-11-21T00:29:49;9.15;88.63
66722;SHT31;53633;49.932;10.884;2023-11-21T00:32:16;9.15;88.76
66722;SHT31;53633;49.932;10.884;2023-11-21T00:34:42;9.13;88.55
66722;SHT31;53633;49.932;10.884;2023-11-21T00:37:09;9.07;88.41
66722;SHT31;53633;49.932;10.884;2023-11-21T00:39:37;9.06;88.54
66722;SHT31;53633;49.932;10.884;2023-11-21T00:42:04;9.06;88.69
66722;SHT31;53633;49.932;10.884;2023-11-21T00:44:31;9.10;88.58
66722;SHT31;53633;49.932;10.884;2023-11-21T00:46:58;9.07;88.63
66722;SHT31;53633;49.932;10.884;2023-11-21T00:49:25;9.10;88.62
66722;SHT31;53633;49.932;10.884;2023-11-21T00:51:51;9.09;88.77
66722;SHT31;53633;49.932;10.884;2023-11-21T00:54:18;9.07;88.80
66722;SHT31;53633;49.932;10.884;2023-11-21T00:56:46;9.09;88.70
66722;SHT31;53633;49.932;10.884;2023-11-21T00:59:13;9.03;88.93
66722;SHT31;53633;49.932;10.884;2023-11-21T01:01:39;9.02;89.12
66722;SHT31;53633;49.932;10.884;2023-11-21T01:04:06;9.03;89.13
66722;SHT31;53633;49.932;10.884;2023-11-21T01:06:33;9.02;89.15
66722;SHT31;53633;49.932;10.884;2023-11-21T01:09:00;9.02;89.19
66722;SHT31;53633;49.932;10.884;2023-11-21T01:11:26;9.03;89.31
66722;SHT31;53633;49.932;10.884;2023-11-21T01:13:54;9.00;89.34
66722;SHT31;53633;49.932;10.884;2023-11-21T01:16:21;8.95;89.35
66722;SHT31;53633;49.932;10.884;2023-11-21T01:18:48;8.95;89.44
66722;SHT31;53633;49.932;10.884;2023-11-21T01:21:15;9.03;89.38
66722;SHT31;53633;49.932;10.884;2023-11-21T01:23:41;9.05;89.20
66722;SHT31;53633;49.932;10.884;2023-11-21T01:26:08;9.06;89.15
66722;SHT31;53633;49.932;10.884;2023-11-21T01:28:35;9.00;89.28
66722;SHT31;53633;49.932;10.884;2023-11-21T01:31:03;8.99;89.38
66722;SHT31;53633;49.932;10.884;2023-11-21T01:33:30;9.02;89.39
66722;SHT31;53633;49.932;10.884;2023-11-21T01:35:57;8.96;89.54
66722;SHT31;53633;49.932;10.884;2023-11-21T01:38:24;8.96;89.55
66722;SHT31;53633;49.932;10.884;2023-11-21T01:40:51;9.00;89.56
66722;SHT31;53633;49.932;10.884;2023-11-21T01:43:18;9.00;89.54
66722;SHT31;53633;49.932;10.884;2023-11-21T01:45:45;8.98;89.58
66722;SHT31;53633;49.932;10.884;2023-11-21T01:48:13;9.02;89.65
66722;SHT31;53633;49.932;10.884;2023-11-21T01:50:40;8.98;89.66
66722;SHT31;53633;49.932;10.884;2023-11-21T01:53:07;8.99;89.69
66722;SHT31;53633;49.932;10.884;2023-11-21T01:55:34;8.96;89.66
66722;SHT31;53633;49.932;10.884;2023-11-21T01:58:02;8.98;89.57
66722;SHT31;53633;49.932;10.884;2023-11-21T02:00:29;8.99;89.67
66722;SHT31;53633;49.932;10.884;2023-11-21T02:02:56;8.96;89.69
66722;SHT31;53633;49.932;10.884;2023-11-21T02:05:25;9.00;89.71
66722;SHT31;53633;49.932;10.884;2023-11-21T02:07:52;8.99;89.75
66722;SHT31;53633;49.932;10.884;2023-11-21T02:10:19;9.02;89.76
66722;SHT31;53633;49.932;10.884;2023-11-21T02:12:46;9.03;89.74
66722;SHT31;53633;49.932;10.884;2023-11-21T02:15:14;9.02;89.85
66722;SHT31;53633;49.932;10.884;2023-11-21T02:17:41;9.02;89.87
66722;SHT31;53633;49.932;10.884;2023-11-21T02:20:08;8.99;89.90
66722;SHT31;53633;49.932;10.884;2023-11-21T02:22:37;8.99;90.04
66722;SHT31;53633;49.932;10.884;2023-11-21T02:25:06;9.02;89.98
66722;SHT31;53633;49.932;10.884;2023-11-21T02:27:33;9.00;89.98
66722;SHT31;53633;49.932;10.884;2023-11-21T02:30:00;8.98;90.04
66722;SHT31;53633;49.932;10.884;2023-11-21T02:32:27;8.95;89.93
66722;SHT31;53633;49.932;10.884;2023-11-21T02:34:53;8.95;89.96
66722;SHT31;53633;49.932;10.884;2023-11-21T02:37:20;8.93;90.00
66722;SHT31;53633;49.932;10.884;2023-11-21T02:39:47;8.92;89.97
66722;SHT31;53633;49.932;10.884;2023-11-21T02:42:15;8.92;90.17
66722;SHT31;53633;49.932;10.884;2023-11-21T02:44:41;8.88;90.18
66722;SHT31;53633;49.932;10.884;2023-11-21T02:47:08;8.92;90.37
66722;SHT31;53633;49.932;10.884;2023-11-21T02:49:35;8.90;90.38
66722;SHT31;53633;49.932;10.884;2023-11-21T02:52:02;8.92;90.33
66722;SHT31;53633;49.932;10.884;2023-11-21T02:54:28;8.93;90.37
66722;SHT31;53633;49.932;10.884;2023-11-21T02:56:55;8.92;90.29
66722;SHT31;53633;49.932;10.884;2023-11-21T02:59:23;8.92;90.36
66722;SHT31;53633;49.932;10.884;2023-11-21T03:01:50;8.90;90.27
66722;SHT31;53633;49.932;10.884;2023-11-21T03:04:16;8.90;90.36
66722;SHT31;53633;49.932;10.884;2023-11-21T03:06:44;8.88;90.42
66722;SHT31;53633;49.932;10.884;2023-11-21T03:09:11;8.85;90.67
66722;SHT31;53633;49.932;10.884;2023-11-21T03:11:37;8.90;90.71
66722;SHT31;53633;49.932;10.884;2023-11-21T03:14:04;8.93;90.55
66722;SHT31;53633;49.932;10.884;2023-11-21T03:16:33;8.90;90.59
66722;SHT31;53633;49.932;10.884;2023-11-21T03:19:00;8.95;90.62
66722;SHT31;53633;49.932;10.884;2023-11-21T03:21:27;8.93;90.66
66722;SHT31;53633;49.932;10.884;2023-11-21T03:23:54;8.98;90.66
66722;SHT31;53633;49.932;10.884;2023-11-21T03:26:20;8.96;90.71
66722;SHT31;53633;49.932;10.884;2023-11-21T03:28:47;8.98;90.70
66722;SHT31;53633;49.932;10.884;2023-11-21T03:31:15;9.02;90.61
66722;SHT31;53633;49.932;10.884;2023-11-21T03:33:43;9.05;90.45
66722;SHT31;53633;49.932;10.884;2023-11-21T03:36:10;9.06;90.42
66722;SHT31;53633;49.932;10.884;2023-11-21T03:38:37;9.05;90.48
66722;SHT31;53633;49.932;10.884;2023-11-21T03:41:04;9.03;90.51
66722;SHT31;53633;49.932;10.884;2023-11-21T03:43:31;9.06;90.45
66722;SHT31;53633;49.932;10.884;2023-11-21T03:45:58;9.07;90.43
66722;SHT31;53633;49.932;10.884;2023-11-21T03:48:25;9.05;90.45
66722;SHT31;53633;49.932;10.884;2023-11-21T03:50:53;9.05;90.48
66722;SHT31;53633;49.932;10.884;2023-11-21T03:53:19;9.02;90.58
66722;SHT31;53633;49.932;10.884;2023-11-21T03:55:46;8.96;90.61
66722;SHT31;53633;49.932;10.884;2023-11-21T03:58:13;8.96;90.62
66722;SHT31;53633;49.932;10.884;2023-11-21T04:00:40;8.95;90.67
66722;SHT31;53633;49.932;10.884;2023-11-21T04:03:07;8.95;90.73
66722;SHT31;53633;49.932;10.884;2023-11-21T04:05:33;8.95;90.76
66722;SHT31;53633;49.932;10.884;2023-11-21T04:08:02;8.88;91.01
66722;SHT31;53633;49.932;10.884;2023-11-21T04:10:28;8.89;91.07
66722;SHT31;53633;49.932;10.884;2023-11-21T04:12:55;8.88;91.14
66722;SHT31;53633;49.932;10.884;2023-11-21T04:15:22;8.90;91.15
66722;SHT31;53633;49.932;10.884;2023-11-21T04:17:49;8.90;91.18
66722;SHT31;53633;49.932;10.884;2023-11-21T04:20:16;8.93;91.11
66722;SHT31;53633;49.932;10.884;2023-11-21T04:22:43;8.90;91.08
66722;SHT31;53633;49.932;10.884;2023-11-21T04:25:14;8.93;91.17
66722;SHT31;53633;49.932;10.884;2023-11-21T04:27:43;8.93;91.31
66722;SHT31;53633;49.932;10.884;2023-11-21T04:30:11;8.96;91.18
66722;SHT31;53633;49.932;10.884;2023-11-21T04:32:38;8.90;91.21
66722;SHT31;53633;49.932;10.884;2023-11-21T04:35:06;8.85;91.23
66722;SHT31;53633;49.932;10.884;2023-11-21T04:37:32;8.85;91.42
66722;SHT31;53633;49.932;10.884;2023-11-21T04:39:59;8.85;91.37
66722;SHT31;53633;49.932;10.884;2023-11-21T04:42:27;8.88;91.42
66722;SHT31;53633;49.932;10.884;2023-11-21T04:44:54;8.95;91.29
66722;SHT31;53633;49.932;10.884;2023-11-21T04:47:20;8.96;91.16
66722;SHT31;53633;49.932;10.884;2023-11-21T04:49:47;8.93;91.23
66722;SHT31;53633;49.932;10.884;2023-11-21T04:52:14;8.93;91.32
66722;SHT31;53633;49.932;10.884;2023-11-21T04:54:41;8.93;91.33
66722;SHT31;53633;49.932;10.884;2023-11-21T04:57:08;8.95;91.35
66722;SHT31;53633;49.932;10.884;2023-11-21T04:59:36;8.93;91.37
66722;SHT31;53633;49.932;10.884;2023-11-21T05:02:02;8.96;91.44
66722;SHT31;53633;49.932;10.884;2023-11-21T05:04:29;8.95;91.39
66722;SHT31;53633;49.932;10.884;2023-11-21T05:06:56;9.00;91.51
66722;SHT31;53633;49.932;10.884;2023-11-21T05:09:23;9.05;91.29
66722;SHT31;53633;49.932;10.884;2023-11-21T05:11:49;9.12;91.13
66722;SHT31;53633;49.932;10.884;2023-11-21T05:14:16;9.13;91.00
66722;SHT31;53633;49.932;10.884;2023-11-21T05:16:44;9.10;91.05
66722;SHT31;53633;49.932;10.884;2023-11-21T05:19:11;9.05;91.07
66722;SHT31;53633;49.932;10.884;2023-11-21T05:21:38;9.00;91.08
66722;SHT31;53633;49.932;10.884;2023-11-21T05:24:05;8.98;91.13
66722;SHT31;53633;49.932;10.884;2023-11-21T05:26:32;8.93;91.21
66722;SHT31;53633;49.932;10.884;2023-11-21T05:28:59;8.90;91.34
66722;SHT31;53633;49.932;10.884;2023-11-21T05:31:25;8.96;91.25
66722;SHT31;53633;49.932;10.884;2023-11-21T05:33:54;8.92;91.17
66722;SHT31;53633;49.932;10.884;2023-11-21T05:36:20;8.86;91.28
66722;SHT31;53633;49.932;10.884;2023-11-21T05:38:47;8.90;91.34
66722;SHT31;53633;49.932;10.884;2023-11-21T05:41:15;8.88;91.26
66722;SHT31;53633;49.932;10.884;2023-11-21T05:43:41;8.88;91.43
66722;SHT31;53633;49.932;10.884;2023-11-21T05:46:08;8.85;91.40
66722;SHT31;53633;49.932;10.884;2023-11-21T05:48:35;8.86;91.55
66722;SHT31;53633;49.932;10.884;2023-11-21T05:51:03;8.88;91.40
66722;SHT31;53633;49.932;10.884;2023-11-21T05:53:30;8.85;91.46
66722;SHT31;53633;49.932;10.884;2023-11-21T05:55:57;8.79;91.53
66722;SHT31;53633;49.932;10.884;2023-11-21T05:58:24;8.78;91.65
66722;SHT31;53633;49.932;10.884;2023-11-21T06:00:51;8.79;91.77
66722;SHT31;53633;49.932;10.884;2023-11-21T06:03:18;8.85;91.76
66722;SHT31;53633;49.932;10.884;2023-11-21T06:05:45;8.85;91.73
66722;SHT31;53633;49.932;10.884;2023-11-21T06:08:13;8.85;91.77
66722;SHT31;53633;49.932;10.884;2023-11-21T06:10:40;8.90;91.68
66722;SHT31;53633;49.932;10.884;2023-11-21T06:13:06;8.96;91.62
66722;SHT31;53633;49.932;10.884;2023-11-21T06:15:33;8.93;91.52
66722;SHT31;53633;49.932;10.884;2023-11-21T06:18:00;8.93;91.54
66722;SHT31;53633;49.932;10.884;2023-11-21T06:20:27;8.90;91.65
66722;SHT31;53633;49.932;10.884;2023-11-21T06:22:54;8.90;91.64
66722;SHT31;53633;49.932;10.884;2023-11-21T06:25:22;8.92;91.57
66722;SHT31;53633;49.932;10.884;2023-11-21T06:27:50;8.96;91.52
66722;SHT31;53633;49.932;10.884;2023-11-21T06:30:17;8.96;91.49
66722;SHT31;53633;49.932;10.884;2023-11-21T06:32:43;8.95;91.50
66722;SHT31;53633;49.932;10.884;2023-11-21T06:35:10;8.93;91.43
66722;SHT31;53633;49.932;10.884;2023-11-21T06:37:37;8.98;91.36
66722;SHT31;53633;49.932;10.884;2023-11-21T06:40:05;8.95;91.44
66722;SHT31;53633;49.932;10.884;2023-11-21T06:42:33;8.92;91.55
66722;SHT31;53633;49.932;10.884;2023-11-21T06:45:00;8.90;91.56
66722;SHT31;53633;49.932;10.884;2023-11-21T06:47:27;8.92;91.70
66722;SHT31;53633;49.932;10.884;2023-11-21T06:49:54;8.92;91.66
66722;SHT31;53633;49.932;10.884;2023-11-21T06:52:21;8.92;91.68
66722;SHT31;53633;49.932;10.884;2023-11-21T06:54:48;8.90;91.69
66722;SHT31;53633;49.932;10.884;2023-11-21T06:57:15;8.95;91.64
66722;SHT31;53633;49.932;10.884;2023-11-21T06:59:43;8.98;91.69
66722;SHT31;53633;49.932;10.884;2023-11-21T07:02:10;9.03;91.58
66722;SHT31;53633;49.932;10.884;2023-11-21T07:04:37;9.02;91.49
66722;SHT31;53633;49.932;10.884;2023-11-21T07:07:04;9.06;91.47
66722;SHT31;53633;49.932;10.884;2023-11-21T07:09:30;8.98;91.78
66722;SHT31;53633;49.932;10.884;2023-11-21T07:11:57;9.05;91.66
66722;SHT31;53633;49.932;10.884;2023-11-21T07:14:24;8.98;91.71
66722;SHT31;53633;49.932;10.884;2023-11-21T07:16:52;9.03;91.72
66722;SHT31;53633;49.932;10.884;2023-11-21T07:19:19;9.07;91.60
66722;SHT31;53633;49.932;10.884;2023-11-21T07:21:46;9.10;91.54
66722;SHT31;53633;49.932;10.884;2023-11-21T07:24:13;9.07;91.48
66722;SHT31;53633;49.932;10.884;2023-11-21T07:26:39;9.07;91.58
66722;SHT31;53633;49.932;10.884;2023-11-21T07:29:06;9.15;91.52
66722;SHT31;53633;49.932;10.884;2023-11-21T07:31:33;9.12;91.43
66722;SHT31;53633;49.932;10.884;2023-11-21T07:34:01;9.12;91.46
66722;SHT31;53633;49.932;10.884;2023-11-21T07:36:28;9.12;91.45
66722;SHT31;53633;49.932;10.884;2023-11-21T07:38:54;9.13;91.40
66722;SHT31;53633;49.932;10.884;2023-11-21T07:41:21;9.15;91.42
66722;SHT31;53633;49.932;10.884;2023-11-21T07:43:57;9.13;91.43
66722;SHT31;53633;49.932;10.884;2023-11-21T07:46:23;9.12;91.56
66722;SHT31;53633;49.932;10.884;2023-11-21T07:48:51;9.17;91.55
66722;SHT31;53633;49.932;10.884;2023-11-21T07:51:19;9.22;91.51
66722;SHT31;53633;49.932;10.884;2023-11-21T07:53:45;9.26;91.43
66722;SHT31;53633;49.932;10.884;2023-11-21T07:56:12;9.30;91.47
66722;SHT31;53633;49.932;10.884;2023-11-21T07:58:39;9.33;91.38
66722;SHT31;53633;49.932;10.884;2023-11-21T08:01:05;9.31;91.41
66722;SHT31;53633;49.932;10.884;2023-11-21T08:03:32;9.41;91.29
66722;SHT31;53633;49.932;10.884;2023-11-21T08:05:59;9.44;91.08
66722;SHT31;53633;49.932;10.884;2023-11-21T08:08:27;9.52;90.61
66722;SHT31;53633;49.932;10.884;2023-11-21T08:10:54;9.58;90.39
66722;SHT31;53633;49.932;10.884;2023-11-21T08:13:21;9.57;90.29
66722;SHT31;53633;49.932;10.884;2023-11-21T08:15:48;9.57;90.17
66722;SHT31;53633;49.932;10.884;2023-11-21T08:18:15;9.62;90.09
66722;SHT31;53633;49.932;10.884;2023-11-21T08:20:42;9.61;90.06
66722;SHT31;53633;49.932;10.884;2023-11-21T08:23:08;9.61;90.22
66722;SHT31;53633;49.932;10.884;2023-11-21T08:25:36;9.62;90.28
66722;SHT31;53633;49.932;10.884;2023-11-21T08:28:03;9.62;90.18
66722;SHT31;53633;49.932;10.884;2023-11-21T08:30:30;9.68;90.07
66722;SHT31;53633;49.932;10.884;2023-11-21T08:32:57;9.72;90.31
66722;SHT31;53633;49.932;10.884;2023-11-21T08:35:23;9.70;90.30
66722;SHT31;53633;49.932;10.884;2023-11-21T08:37:51;9.68;90.18
66722;SHT31;53633;49.932;10.884;2023-11-21T08:40:18;9.59;90.31
66722;SHT31;53633;49.932;10.884;2023-11-21T08:42:46;9.65;90.18
66722;SHT31;53633;49.932;10.884;2023-11-21T08:45:13;9.64;90.12
66722;SHT31;53633;49.932;10.884;2023-11-21T08:47:40;9.72;90.09
66722;SHT31;53633;49.932;10.884;2023-11-21T08:50:08;9.78;90.03
66722;SHT31;53633;49.932;10.884;2023-11-21T08:52:35;9.78;89.77
66722;SHT31;53633;49.932;10.884;2023-11-21T08:55:01;9.81;89.69
66722;SHT31;53633;49.932;10.884;2023-11-21T08:57:28;9.82;89.80
66722;SHT31;53633;49.932;10.884;2023-11-21T08:59:56;9.82;89.95
66722;SHT31;53633;49.932;10.884;2023-11-21T09:02:23;9.82;89.73
66722;SHT31;53633;49.932;10.884;2023-11-21T09:04:49;9.82;89.89
66722;SHT31;53633;49.932;10.884;2023-11-21T09:07:16;9.79;90.19
66722;SHT31;53633;49.932;10.884;2023-11-21T09:09:43;9.83;89.96
66722;SHT31;53633;49.932;10.884;2023-11-21T09:12:09;9.79;90.46
66722;SHT31;53633;49.932;10.884;2023-11-21T09:14:36;9.91;90.23
66722;SHT31;53633;49.932;10.884;2023-11-21T09:17:04;9.99;89.81
66722;SHT31;53633;49.932;10.884;2023-11-21T09:19:31;9.99;89.90
66722;SHT31;53633;49.932;10.884;2023-11-21T09:21:58;10.03;89.81
66722;SHT31;53633;49.932;10.884;2023-11-21T09:24:24;10.12;89.52
66722;SHT31;53633;49.932;10.884;2023-11-21T09:26:51;10.19;89.20
66722;SHT31;53633;49.932;10.884;2023-11-21T09:29:18;10.21;89.31
66722;SHT31;53633;49.932;10.884;2023-11-21T09:31:44;10.33;89.08
66722;SHT31;53633;49.932;10.884;2023-11-21T09:34:12;10.28;88.91
66722;SHT31;53633;49.932;10.884;2023-11-21T09:36:39;10.24;88.47
66722;SHT31;53633;49.932;10.884;2023-11-21T09:39:06;10.36;88.29
66722;SHT31;53633;49.932;10.884;2023-11-21T09:41:37;10.44;87.90
66722;SHT31;53633;49.932;10.884;2023-11-21T09:44:08;10.33;88.66
66722;SHT31;53633;49.932;10.884;2023-11-21T09:46:35;10.44;88.51
66722;SHT31;53633;49.932;10.884;2023-11-21T09:49:02;10.48;88.39
66722;SHT31;53633;49.932;10.884;2023-11-21T09:51:32;10.48;88.29
66722;SHT31;53633;49.932;10.884;2023-11-21T09:53:59;10.54;88.26
66722;SHT31;53633;49.932;10.884;2023-11-21T09:56:27;10.63;87.76
66722;SHT31;53633;49.932;10.884;2023-11-21T09:58:54;10.64;87.23
66722;SHT31;53633;49.932;10.884;2023-11-21T10:01:21;10.56;87.03
66722;SHT31;53633;49.932;10.884;2023-11-21T10:03:50;10.56;86.95
66722;SHT31;53633;49.932;10.884;2023-11-21T10:06:17;10.56;86.35
66722;SHT31;53633;49.932;10.884;2023-11-21T10:08:46;10.58;86.50
66722;SHT31;53633;49.932;10.884;2023-11-21T10:11:23;10.48;86.19
66722;SHT31;53633;49.932;10.884;2023-11-21T10:13:52;10.54;86.52
66722;SHT31;53633;49.932;10.884;2023-11-21T10:16:19;10.68;86.48
66722;SHT31;53633;49.932;10.884;2023-11-21T10:18:47;10.77;86.55
66722;SHT31;53633;49.932;10.884;2023-11-21T10:21:14;10.75;86.27
66722;SHT31;53633;49.932;10.884;2023-11-21T10:23:41;10.85;85.96
66722;SHT31;53633;49.932;10.884;2023-11-21T10:26:11;10.79;85.28
66722;SHT31;53633;49.932;10.884;2023-11-21T10:28:57;10.89;85.15
66722;SHT31;53633;49.932;10.884;2023-11-21T10:31:25;10.89;85.24
66722;SHT31;53633;49.932;10.884;2023-11-21T10:33:53;10.84;85.56
66722;SHT31;53633;49.932;10.884;2023-11-21T10:36:26;10.94;84.85
66722;SHT31;53633;49.932;10.884;2023-11-21T10:38:53;10.84;84.97
66722;SHT31;53633;49.932;10.884;2023-11-21T10:41:21;10.88;85.04
66722;SHT31;53633;49.932;10.884;2023-11-21T10:43:48;10.85;85.33
66722;SHT31;53633;49.932;10.884;2023-11-21T10:46:15;10.75;84.69
66722;SHT31;53633;49.932;10.884;2023-11-21T10:48:42;10.68;84.44
66722;SHT31;53633;49.932;10.884;2023-11-21T10:51:09;10.63;84.69
66722;SHT31;53633;49.932;10.884;2023-11-21T10:53:39;10.69;84.85
66722;SHT31;53633;49.932;10.884;2023-11-21T10:56:08;10.74;85.14
66722;SHT31;53633;49.932;10.884;2023-11-21T10:58:37;10.61;85.33
66722;SHT31;53633;49.932;10.884;2023-11-21T11:01:06;10.47;84.96
66722;SHT31;53633;49.932;10.884;2023-11-21T11:03:36;10.39;85.24
66722;SHT31;53633;49.932;10.884;2023-11-21T11:06:04;10.32;85.70
66722;SHT31;53633;49.932;10.884;2023-11-21T11:08:31;10.17;85.71
66722;SHT31;53633;49.932;10.884;2023-11-21T11:10:58;10.21;85.79
66722;SHT31;53633;49.932;10.884;2023-11-21T11:13:25;10.14;85.80
66722;SHT31;53633;49.932;10.884;2023-11-21T11:15:58;10.21;85.72
66722;SHT31;53633;49.932;10.884;2023-11-21T11:18:25;10.16;84.93
66722;SHT31;53633;49.932;10.884;2023-11-21T11:20:52;10.23;85.00
66722;SHT31;53633;49.932;10.884;2023-11-21T11:23:32;10.19;85.00
66722;SHT31;53633;49.932;10.884;2023-11-21T11:26:10;10.13;85.14
66722;SHT31;53633;49.932;10.884;2023-11-21T11:28:44;10.12;84.99
66722;SHT31;53633;49.932;10.884;2023-11-21T11:31:17;10.12;85.08
66722;SHT31;53633;49.932;10.884;2023-11-21T11:33:50;10.13;84.97
66722;SHT31;53633;49.932;10.884;2023-11-21T11:36:25;10.12;84.39
66722;SHT31;53633;49.932;10.884;2023-11-21T11:38:53;10.10;84.67
66722;SHT31;53633;49.932;10.884;2023-11-21T11:41:25;10.14;84.52
66722;SHT31;53633;49.932;10.884;2023-11-21T11:43:52;10.17;84.50
66722;SHT31;53633;49.932;10.884;2023-11-21T11:46:20;10.20;84.30
66722;SHT31;53633;49.932;10.884;2023-11-21T11:48:48;10.23;84.31
66722;SHT31;53633;49.932;10.884;2023-11-21T11:51:28;10.20;84.63
66722;SHT31;53633;49.932;10.884;2023-11-21T11:53:56;10.23;84.91
66722;SHT31;53633;49.932;10.884;2023-11-21T11:56:24;10.28;84.88
66722;SHT31;53633;49.932;10.884;2023-11-21T11:58:53;10.21;84.65
66722;SHT31;53633;49.932;10.884;2023-11-21T12:01:22;10.23;84.19
66722;SHT31;53633;49.932;10.884;2023-11-21T12:04:22;10.23;84.03
66722;SHT31;53633;49.932;10.884;2023-11-21T12:06:52;10.26;83.90
66722;SHT31;53633;49.932;10.884;2023-11-21T12:09:18;10.26;83.76
66722;SHT31;53633;49.932;10.884;2023-11-21T12:11:45;10.34;83.48
66722;SHT31;53633;49.932;10.884;2023-11-21T12:14:13;10.36;83.90
66722;SHT31;53633;49.932;10.884;2023-11-21T12:16:41;10.41;83.24
66722;SHT31;53633;49.932;10.884;2023-11-21T12:19:08;10.40;82.12
66722;SHT31;53633;49.932;10.884;2023-11-21T12:21:36;10.39;81.44
66722;SHT31;53633;49.932;10.884;2023-11-21T12:24:03;10.47;81.19
66722;SHT31;53633;49.932;10.884;2023-11-21T12:26:30;10.47;80.47
66722;SHT31;53633;49.932;10.884;2023-11-21T12:28:57;10.48;79.98
66722;SHT31;53633;49.932;10.884;2023-11-21T12:31:24;10.54;80.11
66722;SHT31;53633;49.932;10.884;2023-11-21T12:33:52;10.63;79.97
66722;SHT31;53633;49.932;10.884;2023-11-21T12:36:19;10.74;79.66
66722;SHT31;53633;49.932;10.884;2023-11-21T12:38:46;10.74;78.84
66722;SHT31;53633;49.932;10.884;2023-11-21T12:41:12;10.72;78.61
66722;SHT31;53633;49.932;10.884;2023-11-21T12:43:39;10.79;77.92
66722;SHT31;53633;49.932;10.884;2023-11-21T12:46:06;10.84;77.61
66722;SHT31;53633;49.932;10.884;2023-11-21T12:48:33;10.84;77.94
66722;SHT31;53633;49.932;10.884;2023-11-21T12:51:01;10.91;78.19
66722;SHT31;53633;49.932;10.884;2023-11-21T12:53:28;10.94;78.01
66722;SHT31;53633;49.932;10.884;2023-11-21T12:55:55;10.85;77.64
66722;SHT31;53633;49.932;10.884;2023-11-21T12:58:24;10.89;77.39
66722;SHT31;53633;49.932;10.884;2023-11-21T13:00:50;10.88;77.59
66722;SHT31;53633;49.932;10.884;2023-11-21T13:03:17;10.84;77.68
66722;SHT31;53633;49.932;10.884;2023-11-21T13:05:47;10.89;78.00
66722;SHT31;53633;49.932;10.884;2023-11-21T13:08:16;10.96;78.40
66722;SHT31;53633;49.932;10.884;2023-11-21T13:10:44;10.96;78.25
66722;SHT31;53633;49.932;10.884;2023-11-21T13:13:12;11.04;77.77
66722;SHT31;53633;49.932;10.884;2023-11-21T13:15:40;11.04;78.12
66722;SHT31;53633;49.932;10.884;2023-11-21T13:18:07;10.99;77.77
66722;SHT31;53633;49.932;10.884;2023-11-21T13:20:33;10.91;78.35
66722;SHT31;53633;49.932;10.884;2023-11-21T13:23:00;10.89;78.25
66722;SHT31;53633;49.932;10.884;2023-11-21T13:25:35;10.89;78.66
66722;SHT31;53633;49.932;10.884;2023-11-21T13:28:01;10.88;79.28
66722;SHT31;53633;49.932;10.884;2023-11-21T13:30:28;10.88;79.28
66722;SHT31;53633;49.932;10.884;2023-11-21T13:32:55;10.79;78.64
66722;SHT31;53633;49.932;10.884;2023-11-21T13:35:22;10.75;78.18
66722;SHT31;53633;49.932;10.884;2023-11-21T13:37:50;10.65;78.35
66722;SHT31;53633;49.932;10.884;2023-11-21T13:40:20;10.64;78.12
66722;SHT31;53633;49.932;10.884;2023-11-21T13:42:49;10.63;78.27
66722;SHT31;53633;49.932;10.884;2023-11-21T13:45:15;10.57;78.92
66722;SHT31;53633;49.932;10.884;2023-11-21T13:47:42;10.57;79.26
66722;SHT31;53633;49.932;10.884;2023-11-21T13:50:09;10.54;79.73
66722;SHT31;53633;49.932;10.884;2023-11-21T13:52:35;10.54;80.36
66722;SHT31;53633;49.932;10.884;2023-11-21T13:55:02;10.51;80.11
66722;SHT31;53633;49.932;10.884;2023-11-21T13:57:29;10.54;80.17
66722;SHT31;53633;49.932;10.884;2023-11-21T13:59:57;10.63;80.18
66722;SHT31;53633;49.932;10.884;2023-11-21T14:02:24;10.64;80.24
66722;SHT31;53633;49.932;10.884;2023-11-21T14:04:51;10.57;80.47
66722;SHT31;53633;49.932;10.884;2023-11-21T14:07:17;10.51;80.95
66722;SHT31;53633;49.932;10.884;2023-11-21T14:09:44;10.46;80.96
66722;SHT31;53633;49.932;10.884;2023-11-21T14:12:11;10.43;81.14
66722;SHT31;53633;49.932;10.884;2023-11-21T14:14:38;10.36;81.48
66722;SHT31;53633;49.932;10.884;2023-11-21T14:17:06;10.40;81.80
66722;SHT31;53633;49.932;10.884;2023-11-21T14:19:32;10.36;81.80
66722;SHT31;53633;49.932;10.884;2023-11-21T14:21:59;10.41;81.78
66722;SHT31;53633;49.932;10.884;2023-11-21T14:24:26;10.50;81.96
66722;SHT31;53633;49.932;10.884;2023-11-21T14:26:53;10.56;81.69
66722;SHT31;53633;49.932;10.884;2023-11-21T14:29:21;10.43;81.63
66722;SHT31;53633;49.932;10.884;2023-11-21T14:31:47;10.39;81.32
66722;SHT31;53633;49.932;10.884;2023-11-21T14:34:16;10.41;81.44
66722;SHT31;53633;49.932;10.884;2023-11-21T14:36:47;10.36;81.50
66722;SHT31;53633;49.932;10.884;2023-11-21T14:39:14;10.36;81.73
66722;SHT31;53633;49.932;10.884;2023-11-21T14:41:41;10.34;81.72
66722;SHT31;53633;49.932;10.884;2023-11-21T14:44:08;10.37;81.82
66722;SHT31;53633;49.932;10.884;2023-11-21T14:46:34;10.36;81.67
66722;SHT31;53633;49.932;10.884;2023-11-21T14:49:01;10.39;81.64
66722;SHT31;53633;49.932;10.884;2023-11-21T14:51:29;10.34;81.84
66722;SHT31;53633;49.932;10.884;2023-11-21T14:53:56;10.26;81.81
66722;SHT31;53633;49.932;10.884;2023-11-21T14:56:23;10.21;81.95
66722;SHT31;53633;49.932;10.884;2023-11-21T14:58:50;10.09;81.96
66722;SHT31;53633;49.932;10.884;2023-11-21T15:01:16;10.12;81.90
66722;SHT31;53633;49.932;10.884;2023-11-21T15:03:43;10.17;81.96
66722;SHT31;53633;49.932;10.884;2023-11-21T15:06:10;10.16;81.91
66722;SHT31;53633;49.932;10.884;2023-11-21T15:08:38;10.10;81.85
66722;SHT31;53633;49.932;10.884;2023-11-21T15:11:05;10.09;82.11
66722;SHT31;53633;49.932;10.884;2023-11-21T15:13:32;10.02;82.02
66722;SHT31;53633;49.932;10.884;2023-11-21T15:15:58;10.02;82.15
66722;SHT31;53633;49.932;10.884;2023-11-21T15:18:25;9.98;82.33
66722;SHT31;53633;49.932;10.884;2023-11-21T15:20:52;9.93;82.30
66722;SHT31;53633;49.932;10.884;2023-11-21T15:23:18;9.95;82.46
66722;SHT31;53633;49.932;10.884;2023-11-21T15:25:47;10.01;82.51